Lahore City, Pakistan

1:13 AM PKT on September 19, 2014 (GMT +0500)
Lahore International | Change Station
CLOSE
Current Station
Airport
Location: Lahore,
Elevation: 712 ft
Nearby Weather Stations

Elev 712 ft 31.52 °N, 74.40 °E | Updated 18 minutes ago

Smoke
Smoke
84 °F
Feels Like 94 °F
N
0
Wind Variable Wind from North

Today
High -- | Low -- °F
--% Chance of Precip.
Yesterday
High -- | Low -- °F
Precip. -- in
5:48 AM 6:03 PM
Waning Crescent, 25% visible
Pressure 29.71 in
Visibility 2.5 miles
Clouds
Heat Index 94 °F
Dew Point 77 °F
Humidity 79%
Rainfall 0.00 in
Snow Depth Not available.
UV Not available.
Pollen Not available.
Air Quality Not available.
Flu Activity Not available.
METAR OPLA 181955Z 00000KT 4000 FU NSC 29/25 Q1006 NOSIG

More Conditions Fewer Conditions

Pressure 29.71 in
Visibility 2.5 miles
Clouds
Heat Index 94 °F
Dew Point 77 °F
Humidity 79%
Rainfall 0.00 in
Snow Depth Not available.
UV Not available.
Pollen Not available.
Air Quality Not available.
Flu Activity Not available.
METAR OPLA 181955Z 00000KT 4000 FU NSC 29/25 Q1006 NOSIG

More Conditions Fewer Conditions

10-Day Weather Forecast

Almanac

Astronomy

Sep. 19, 2014 Rise Set
Actual Time 5:48 AM PKT 6:03 PM PKT
Civil Twilight 5:24 AM PKT 6:28 PM PKT
Nautical Twilight 4:56 AM PKT 6:56 PM PKT
Astronomical Twilight 4:27 AM PKT 7:25 PM PKT
Moon 1:23 AM PKT (9/19) 3:03 PM PKT (9/19)
Length of Visible Light 13h 03m
Length of Day
12h 14m
Tomorrow will be 1m 55s shorter.
Waning Crescent, 25% of the Moon is Illuminated
Sep 18
Waning Crescent
Sep 24
New
Oct 1
First Quarter
Oct 8
Full
Oct 15
Last Quarter

Yesterday's Extremes

Country Highs Country Lows

Community

WunderPhotos

Upload Photos

1,754,423 photos uploaded!

WunderBlogs® & News

By Dr. Jeff Masters
Director of Meteorology, Weather Underground
By Kari Strenfel
Meteorologist, Weather Underground
By Christopher C. Burt
Weather Historian, Weather Underground
September 18, 2014
September 18, 2014
September 18, 2014

Nearby

Snow Depth

Not available.

Earthquake Activity

City Distance Mag. Time & Date
No recent earthquake activity has been reported nearby.
Minimum magnitude displayed is 2.5.

Coastal Water Temperatures

Place Temperature
No Stations Reporting

Nearby Weather Stations